createdAt,value
2023-05-10T00:00:14.129Z,8.73
2023-05-10T00:03:19.674Z,7.82
2023-05-10T00:06:25.518Z,8.32
2023-05-10T00:09:31.580Z,7.60
2023-05-10T00:12:36.679Z,8.50
2023-05-10T00:15:42.144Z,9.38
2023-05-10T00:18:47.798Z,9.15
2023-05-10T00:21:53.463Z,9.82
2023-05-10T00:24:59.914Z,8.55
2023-05-10T00:28:05.672Z,8.68
2023-05-10T00:31:11.327Z,11.57
2023-05-10T00:34:17.124Z,11.25
2023-05-10T00:37:23.770Z,10.30
2023-05-10T00:40:30.378Z,10.48
2023-05-10T00:43:40.168Z,8.27
2023-05-10T00:46:46.599Z,13.80
2023-05-10T00:49:53.054Z,5.68
2023-05-10T00:53:00.978Z,9.93
2023-05-10T00:56:07.583Z,5.95
2023-05-10T00:59:13.060Z,5.32
2023-05-10T01:02:18.957Z,7.10
2023-05-10T01:05:24.626Z,17.90
2023-05-10T01:08:30.346Z,8.45
2023-05-10T01:11:38.485Z,5.57
2023-05-10T01:14:44.372Z,8.07
2023-05-10T01:17:50.840Z,4.45
2023-05-10T01:21:24.497Z,6.55
2023-05-10T01:24:57.077Z,4.03
2023-05-10T01:28:14.735Z,7.97
2023-05-10T01:31:26.292Z,4.10
2023-05-10T01:34:57.665Z,4.25
2023-05-10T01:38:40.634Z,5.63
2023-05-10T01:42:18.207Z,6.40
2023-05-10T01:45:37.339Z,3.97
2023-05-10T01:48:49.926Z,3.83
2023-05-10T01:52:05.584Z,5.72
2023-05-10T01:55:16.368Z,7.85
2023-05-10T01:58:31.863Z,6.28
2023-05-10T02:01:40.008Z,3.72
2023-05-10T02:04:47.680Z,3.75
2023-05-10T02:07:53.899Z,4.07
2023-05-10T02:11:01.531Z,3.28
2023-05-10T02:14:11.606Z,4.15
2023-05-10T02:17:19.439Z,5.63
2023-05-10T02:20:27.359Z,7.28
2023-05-10T02:23:33.321Z,4.13
2023-05-10T02:26:40.952Z,8.25
2023-05-10T02:29:48.153Z,4.15
2023-05-10T02:32:54.926Z,6.18
2023-05-10T02:36:02.106Z,4.80
2023-05-10T02:39:13.876Z,7.13
2023-05-10T02:42:21.595Z,6.30
2023-05-10T02:45:31.637Z,5.55
2023-05-10T02:48:38.072Z,4.53
2023-05-10T02:51:53.084Z,5.45
2023-05-10T02:55:05.158Z,5.35
2023-05-10T02:58:11.714Z,6.93
2023-05-10T03:01:17.796Z,6.97
2023-05-10T03:04:23.507Z,8.90
2023-05-10T03:07:32.747Z,3.72
2023-05-10T03:10:56.703Z,6.40
2023-05-10T03:14:08.586Z,11.88
2023-05-10T03:17:27.564Z,6.75
2023-05-10T03:20:38.626Z,6.45
2023-05-10T03:24:00.000Z,9.32
2023-05-10T03:27:07.026Z,8.25
2023-05-10T03:30:14.969Z,7.82
2023-05-10T03:33:21.452Z,8.73
2023-05-10T03:36:26.544Z,5.38
2023-05-10T03:39:33.195Z,6.88
2023-05-10T03:42:40.510Z,8.70
2023-05-10T03:45:46.279Z,5.72
2023-05-10T03:48:52.660Z,5.70
2023-05-10T03:51:58.893Z,5.43
2023-05-10T03:55:04.965Z,9.20
2023-05-10T03:58:12.783Z,8.70
2023-05-10T04:01:17.782Z,7.00
2023-05-10T04:04:24.412Z,6.80
2023-05-10T04:07:30.528Z,6.13
2023-05-10T04:10:36.347Z,11.35
2023-05-10T04:13:41.687Z,7.13
2023-05-10T04:16:47.411Z,8.88
2023-05-10T04:19:55.869Z,8.90
2023-05-10T04:23:01.327Z,10.32
2023-05-10T04:26:06.976Z,6.60
2023-05-10T04:29:12.391Z,7.25
2023-05-10T04:32:18.430Z,5.55
2023-05-10T04:35:23.837Z,11.00
2023-05-10T04:38:29.562Z,5.85
2023-05-10T04:41:35.079Z,8.27
2023-05-10T04:44:40.361Z,8.43
2023-05-10T04:47:45.849Z,8.23
2023-05-10T04:50:51.892Z,5.28
2023-05-10T04:54:05.879Z,6.55
2023-05-10T04:57:11.932Z,7.63
2023-05-10T05:00:18.157Z,7.28
2023-05-10T05:03:24.358Z,11.98
2023-05-10T05:06:30.017Z,5.75
2023-05-10T05:09:35.805Z,6.82
2023-05-10T05:12:41.136Z,5.55
2023-05-10T05:15:46.370Z,6.28
2023-05-10T05:18:51.900Z,5.82
2023-05-10T05:21:57.643Z,5.43
2023-05-10T05:25:04.722Z,6.80
2023-05-10T05:28:10.216Z,8.55
2023-05-10T05:31:16.116Z,5.68
2023-05-10T05:34:21.830Z,7.07
2023-05-10T05:37:27.792Z,5.88
2023-05-10T05:40:33.272Z,6.22
2023-05-10T05:43:38.786Z,7.75
2023-05-10T05:46:44.145Z,5.07
2023-05-10T05:49:49.957Z,5.30
2023-05-10T05:52:55.276Z,6.13
2023-05-10T05:56:01.046Z,6.35
2023-05-10T05:59:07.250Z,4.65
2023-05-10T06:02:12.865Z,5.20
2023-05-10T06:05:19.051Z,5.65
2023-05-10T06:08:24.496Z,5.55
2023-05-10T06:11:30.264Z,4.47
2023-05-10T06:14:35.726Z,6.00
2023-05-10T06:17:41.566Z,4.80
2023-05-10T06:20:47.098Z,7.68
2023-05-10T06:23:52.682Z,6.05
2023-05-10T06:27:01.562Z,4.80
2023-05-10T06:30:13.428Z,6.38
2023-05-10T06:33:19.108Z,3.92
2023-05-10T06:36:25.970Z,5.78
2023-05-10T06:39:31.521Z,6.47
2023-05-10T06:42:37.282Z,5.32
2023-05-10T06:45:43.294Z,4.65
2023-05-10T06:48:48.729Z,4.68
2023-05-10T06:51:54.056Z,7.07
2023-05-10T06:54:59.507Z,4.25
2023-05-10T06:58:05.130Z,5.07
2023-05-10T07:01:10.991Z,5.10
2023-05-10T07:04:16.812Z,5.97
2023-05-10T07:07:22.545Z,4.68
2023-05-10T07:10:28.248Z,3.05
2023-05-10T07:13:34.726Z,4.13
2023-05-10T07:16:40.898Z,5.45
2023-05-10T07:19:46.665Z,6.10
2023-05-10T07:22:52.194Z,5.90
2023-05-10T07:25:58.725Z,4.75
2023-05-10T07:29:04.459Z,7.80
2023-05-10T07:32:10.277Z,9.95
2023-05-10T07:35:16.373Z,5.05
2023-05-10T07:38:22.652Z,6.03
2023-05-10T07:41:28.564Z,7.30
2023-05-10T07:44:34.189Z,7.15
2023-05-10T07:47:39.741Z,7.80
2023-05-10T07:50:46.007Z,6.70
2023-05-10T07:53:52.282Z,5.25
2023-05-10T07:56:57.838Z,5.00
2023-05-10T08:00:04.354Z,4.13
2023-05-10T08:03:19.279Z,6.75
2023-05-10T08:06:27.279Z,4.15
2023-05-10T08:09:33.397Z,5.25
2023-05-10T08:12:39.995Z,5.05
2023-05-10T08:15:45.606Z,5.68
2023-05-10T08:18:52.127Z,5.20
2023-05-10T08:21:58.510Z,4.28
2023-05-10T08:25:04.889Z,6.72
2023-05-10T08:28:11.842Z,5.20
2023-05-10T08:31:17.656Z,4.88
2023-05-10T08:34:23.682Z,6.28
2023-05-10T08:37:31.695Z,7.65
2023-05-10T08:40:43.778Z,4.97
2023-05-10T08:43:51.289Z,5.35
2023-05-10T08:46:58.834Z,4.95
2023-05-10T08:50:05.073Z,4.57
2023-05-10T08:53:16.164Z,6.03
2023-05-10T08:56:22.223Z,4.97
2023-05-10T08:59:28.529Z,4.63
2023-05-10T09:02:34.383Z,5.43
2023-05-10T09:05:40.026Z,3.47
2023-05-10T09:08:47.355Z,4.88
2023-05-10T09:11:54.310Z,6.57
2023-05-10T09:15:01.318Z,7.38
2023-05-10T09:18:06.887Z,4.18
2023-05-10T09:21:12.641Z,7.88
2023-05-10T09:24:18.450Z,5.03
2023-05-10T09:27:29.738Z,4.93
2023-05-10T09:30:35.890Z,6.60
2023-05-10T09:33:49.081Z,5.03
2023-05-10T09:37:02.880Z,5.57
2023-05-10T09:40:30.096Z,6.05
2023-05-10T09:43:39.593Z,5.88
2023-05-10T09:46:49.951Z,4.80
2023-05-10T09:49:59.294Z,4.78
2023-05-10T09:53:05.096Z,5.75
2023-05-10T09:56:10.889Z,5.13
2023-05-10T09:59:17.114Z,6.95
2023-05-10T10:02:30.604Z,7.25
2023-05-10T10:05:37.126Z,4.93
2023-05-10T10:08:43.108Z,6.80
2023-05-10T10:11:48.531Z,7.07
2023-05-10T10:14:55.150Z,7.63
2023-05-10T10:18:01.394Z,4.22
2023-05-10T10:21:10.093Z,6.07
2023-05-10T10:24:15.805Z,4.95
2023-05-10T10:27:38.005Z,5.32
2023-05-10T10:30:51.479Z,17.75
2023-05-10T10:34:18.646Z,6.60
2023-05-10T10:37:25.585Z,5.00
2023-05-10T10:40:34.886Z,7.45
2023-05-10T10:43:40.915Z,5.18
2023-05-10T10:47:10.434Z,6.97
2023-05-10T10:50:17.515Z,5.50
2023-05-10T10:53:23.529Z,4.97
2023-05-10T10:56:29.316Z,6.13
2023-05-10T10:59:34.787Z,6.03
2023-05-10T11:02:47.285Z,3.60
2023-05-10T11:05:59.796Z,3.45
2023-05-10T11:09:10.493Z,5.68
2023-05-10T11:12:15.797Z,4.32
2023-05-10T11:15:21.892Z,10.25
2023-05-10T11:18:31.843Z,6.70
2023-05-10T11:21:55.473Z,7.60
2023-05-10T11:25:02.236Z,6.60
2023-05-10T11:28:07.955Z,5.10
2023-05-10T11:31:23.515Z,8.57
2023-05-10T11:34:31.598Z,4.68
2023-05-10T11:37:37.282Z,7.28
2023-05-10T11:40:43.726Z,9.73
2023-05-10T11:43:52.122Z,6.80
2023-05-10T11:47:03.100Z,5.43
2023-05-10T11:50:09.925Z,5.55
2023-05-10T11:53:15.798Z,5.82
2023-05-10T11:56:22.042Z,5.45
2023-05-10T11:59:27.903Z,5.03
2023-05-10T12:02:34.177Z,5.68
2023-05-10T12:05:41.123Z,7.97
2023-05-10T12:08:51.211Z,7.90
2023-05-10T12:12:00.311Z,5.68
2023-05-10T12:15:08.056Z,7.60
2023-05-10T12:18:14.988Z,9.07
2023-05-10T12:21:22.475Z,9.38
2023-05-10T12:24:28.428Z,7.32
2023-05-10T12:27:42.943Z,9.88
2023-05-10T12:30:48.070Z,5.93
2023-05-10T12:33:53.715Z,6.75
2023-05-10T12:37:00.673Z,6.25
2023-05-10T12:40:12.344Z,9.68
2023-05-10T12:43:17.943Z,6.55
2023-05-10T12:46:26.475Z,7.60
2023-05-10T12:49:32.453Z,7.90
2023-05-10T12:52:38.426Z,8.57
2023-05-10T12:55:45.728Z,5.88
2023-05-10T12:58:52.214Z,8.77
2023-05-10T13:01:58.957Z,6.15
2023-05-10T13:05:05.393Z,10.75
2023-05-10T13:08:11.072Z,8.10
2023-05-10T13:11:18.300Z,7.10
2023-05-10T13:14:23.457Z,7.57
2023-05-10T13:17:32.118Z,8.00
2023-05-10T13:20:39.508Z,7.15
2023-05-10T13:23:45.009Z,7.63
2023-05-10T13:26:50.602Z,7.53
2023-05-10T13:29:56.213Z,7.70
2023-05-10T13:33:01.798Z,7.07
2023-05-10T13:36:08.162Z,6.75
2023-05-10T13:39:13.969Z,8.45
2023-05-10T13:42:19.663Z,7.18
2023-05-10T13:45:25.381Z,8.63
2023-05-10T13:48:30.867Z,7.35
2023-05-10T13:51:37.038Z,9.02
2023-05-10T13:54:43.187Z,9.65
2023-05-10T13:57:49.690Z,9.90
2023-05-10T14:00:55.354Z,10.00
2023-05-10T14:04:01.365Z,12.00
2023-05-10T14:07:07.281Z,9.18
2023-05-10T14:10:13.068Z,9.55
2023-05-10T14:13:18.639Z,10.98
2023-05-10T14:16:24.314Z,11.48
2023-05-10T14:19:31.934Z,8.63
2023-05-10T14:22:37.683Z,7.82
2023-05-10T14:25:43.318Z,10.95
2023-05-10T14:28:49.254Z,7.50
2023-05-10T14:31:54.818Z,7.43
2023-05-10T14:35:00.919Z,10.00
2023-05-10T14:38:07.215Z,7.10
2023-05-10T14:41:15.840Z,9.15
2023-05-10T14:44:21.372Z,9.00
2023-05-10T14:47:26.921Z,11.45
2023-05-10T14:50:36.843Z,8.52
2023-05-10T14:53:43.786Z,9.25
2023-05-10T14:56:51.104Z,8.65
2023-05-10T14:59:57.775Z,6.68
2023-05-10T15:03:04.747Z,7.30
2023-05-10T15:06:10.898Z,8.73
2023-05-10T15:09:17.721Z,8.02
2023-05-10T15:12:23.721Z,7.82
2023-05-10T15:15:29.678Z,6.95
2023-05-10T15:18:35.114Z,7.65
2023-05-10T15:21:42.785Z,7.57
2023-05-10T15:24:48.160Z,7.78
2023-05-10T15:27:53.720Z,8.57
2023-05-10T15:30:58.924Z,9.40
2023-05-10T15:34:04.472Z,7.38
2023-05-10T15:37:11.145Z,8.90
2023-05-10T15:40:17.028Z,10.50
2023-05-10T15:43:22.681Z,7.85
2023-05-10T15:46:31.899Z,7.78
2023-05-10T15:49:37.212Z,14.18
2023-05-10T15:52:42.924Z,13.45
2023-05-10T15:55:48.289Z,12.00
2023-05-10T15:58:53.837Z,12.32
2023-05-10T16:01:59.408Z,8.30
2023-05-10T16:05:05.664Z,9.23
2023-05-10T16:08:11.121Z,8.57
2023-05-10T16:11:17.330Z,9.75
2023-05-10T16:14:24.867Z,8.90
2023-05-10T16:17:30.632Z,11.38
2023-05-10T16:20:36.328Z,10.43
2023-05-10T16:23:41.867Z,9.40
2023-05-10T16:26:47.353Z,9.63
2023-05-10T16:29:52.901Z,8.48
2023-05-10T16:33:00.640Z,11.63
2023-05-10T16:36:06.756Z,9.68
2023-05-10T16:39:12.707Z,12.60
2023-05-10T16:42:18.650Z,11.80
2023-05-10T16:45:24.421Z,9.80
2023-05-10T16:48:30.036Z,10.70
2023-05-10T16:51:36.102Z,10.38
2023-05-10T16:54:42.765Z,8.77
2023-05-10T16:57:49.760Z,9.38
2023-05-10T17:00:55.360Z,11.00
2023-05-10T17:04:00.833Z,11.00
2023-05-10T17:07:07.184Z,7.28
2023-05-10T17:10:13.296Z,8.90
2023-05-10T17:13:19.256Z,13.68
2023-05-10T17:16:25.503Z,9.65
2023-05-10T17:19:31.666Z,8.07
2023-05-10T17:22:37.087Z,11.88
2023-05-10T17:25:42.737Z,9.98
2023-05-10T17:28:48.534Z,12.45
2023-05-10T17:31:54.192Z,27.70
2023-05-10T17:34:59.697Z,18.27
2023-05-10T17:38:05.436Z,12.70
2023-05-10T17:41:11.418Z,9.55
2023-05-10T17:44:17.062Z,10.02
2023-05-10T17:47:22.767Z,12.48
2023-05-10T17:50:28.734Z,11.10
2023-05-10T17:53:35.662Z,12.25
2023-05-10T17:56:41.745Z,10.48
2023-05-10T17:59:47.779Z,9.15
2023-05-10T18:02:53.413Z,11.52
2023-05-10T18:05:59.117Z,8.18
2023-05-10T18:09:07.708Z,12.25
2023-05-10T18:12:13.390Z,9.48
2023-05-10T18:15:19.253Z,8.32
2023-05-10T18:18:25.755Z,9.43
2023-05-10T18:21:31.760Z,9.60
2023-05-10T18:24:38.821Z,8.73
2023-05-10T18:27:45.685Z,9.25
2023-05-10T18:30:51.967Z,7.07
2023-05-10T18:33:57.523Z,7.03
2023-05-10T18:37:08.028Z,6.95
2023-05-10T18:40:15.121Z,7.07
2023-05-10T18:43:20.862Z,8.57
2023-05-10T18:46:27.740Z,7.93
2023-05-10T18:49:33.312Z,9.05
2023-05-10T18:52:38.663Z,9.93
2023-05-10T18:55:44.912Z,8.68
2023-05-10T18:58:52.734Z,8.07
2023-05-10T19:01:58.344Z,6.22
2023-05-10T19:05:04.194Z,7.90
2023-05-10T19:08:09.785Z,6.80
2023-05-10T19:11:15.739Z,6.15
2023-05-10T19:14:22.384Z,8.52
2023-05-10T19:17:31.101Z,6.38
2023-05-10T19:20:39.767Z,7.57
2023-05-10T19:23:48.194Z,7.03
2023-05-10T19:26:56.545Z,9.27
2023-05-10T19:30:03.252Z,8.70
2023-05-10T19:33:10.474Z,11.45
2023-05-10T19:36:15.955Z,10.75
2023-05-10T19:39:21.791Z,10.00
2023-05-10T19:42:27.681Z,10.93
2023-05-10T19:45:34.349Z,8.10
2023-05-10T19:48:40.157Z,10.00
2023-05-10T19:51:45.673Z,8.95
2023-05-10T19:54:51.181Z,9.20
2023-05-10T19:57:56.933Z,9.98
2023-05-10T20:01:03.332Z,12.13
2023-05-10T20:04:11.512Z,10.75
2023-05-10T20:07:18.067Z,13.07
2023-05-10T20:10:27.120Z,8.05
2023-05-10T20:13:33.716Z,11.05
2023-05-10T20:16:39.131Z,11.55
2023-05-10T20:19:45.138Z,12.52
2023-05-10T20:22:51.266Z,11.23
2023-05-10T20:25:58.545Z,11.45
2023-05-10T20:29:05.312Z,11.10
2023-05-10T20:32:11.282Z,14.75
2023-05-10T20:35:18.332Z,10.77
2023-05-10T20:38:24.619Z,15.13
2023-05-10T20:41:30.966Z,14.85
2023-05-10T20:44:37.174Z,15.80
2023-05-10T20:47:43.055Z,14.23
2023-05-10T20:50:49.430Z,14.80
2023-05-10T20:53:57.578Z,13.52
2023-05-10T20:57:03.603Z,14.00
2023-05-10T21:00:10.093Z,15.82
2023-05-10T21:03:16.018Z,13.63
2023-05-10T21:06:21.638Z,12.88
2023-05-10T21:09:27.296Z,13.52
2023-05-10T21:12:33.408Z,14.27
2023-05-10T21:15:39.051Z,12.40
2023-05-10T21:18:45.056Z,11.45
2023-05-10T21:21:50.654Z,11.55
2023-05-10T21:24:56.228Z,7.45
2023-05-10T21:28:01.824Z,4.60
2023-05-10T21:31:07.838Z,5.07
2023-05-10T21:34:14.377Z,5.25
2023-05-10T21:37:19.958Z,3.00
2023-05-10T21:40:25.797Z,3.03
2023-05-10T21:43:31.940Z,2.20
2023-05-10T21:46:37.678Z,6.10
2023-05-10T21:49:43.405Z,6.55
2023-05-10T21:52:48.947Z,1.20
2023-05-10T21:55:57.997Z,3.65
2023-05-10T21:59:03.839Z,3.50
2023-05-10T22:02:09.491Z,4.22
2023-05-10T22:05:15.157Z,1.42
2023-05-10T22:08:20.893Z,1.70
2023-05-10T22:11:26.688Z,2.35
2023-05-10T22:14:32.381Z,1.50
2023-05-10T22:17:40.143Z,2.60
2023-05-10T22:20:46.733Z,1.65
2023-05-10T22:23:52.630Z,4.10
2023-05-10T22:26:58.320Z,1.35
2023-05-10T22:30:04.727Z,1.23
2023-05-10T22:33:09.961Z,1.92
2023-05-10T22:36:16.060Z,2.63
2023-05-10T22:39:21.768Z,2.90
2023-05-10T22:42:27.299Z,1.30
2023-05-10T22:45:33.221Z,4.03
2023-05-10T22:48:38.861Z,1.67
2023-05-10T22:51:44.758Z,4.40
2023-05-10T22:54:50.135Z,1.02
2023-05-10T22:57:56.270Z,1.42
2023-05-10T23:01:01.630Z,2.97
2023-05-10T23:04:07.219Z,2.28
2023-05-10T23:07:12.865Z,3.83
2023-05-10T23:10:19.127Z,1.75
2023-05-10T23:13:25.207Z,2.63
2023-05-10T23:16:30.832Z,2.45
2023-05-10T23:19:36.147Z,2.88
2023-05-10T23:22:41.982Z,2.35
2023-05-10T23:25:47.521Z,3.85
2023-05-10T23:28:53.191Z,1.73
2023-05-10T23:31:58.880Z,1.98
2023-05-10T23:35:04.580Z,1.88
2023-05-10T23:38:09.796Z,1.73
2023-05-10T23:41:15.347Z,3.03
2023-05-10T23:44:21.191Z,2.08
2023-05-10T23:47:27.210Z,1.35
2023-05-10T23:50:32.664Z,2.20
2023-05-10T23:53:38.416Z,1.90
2023-05-10T23:56:44.132Z,3.47
2023-05-10T23:59:49.567Z,2.70
